Time;durP1;ratioP1;P1;durP2;ratioP2;P2;SDS_P1;SDS_P2;PMS_P1;PMS_P2;Temp;Humidity;BMP_temperature;BMP_pressure;BME280_temperature;BME280_humidity;BME280_pressure;Samples;Min_cycle;Max_cycle;Signal;HPM_P1;HPM_P2
2022/06/11 00:05:21;;;;;;;8.00;5.40;;;14.70;99.90;;;;;;5050113;28;20264;-85
2022/06/11 00:14:32;;;;;;;7.30;5.60;;;14.80;99.90;;;;;;5057236;28;20344;-85
2022/06/11 00:17:00;;;;;;;8.67;5.97;;;14.90;99.90;;;;;;5082847;28;20434;-85
2022/06/11 00:19:36;;;;;;;8.30;5.67;;;14.90;99.90;;;;;;5046678;28;20868;-83
2022/06/11 00:22:22;;;;;;;7.97;5.70;;;15.00;99.90;;;;;;5016637;28;20449;-82
2022/06/11 00:24:52;;;;;;;11.13;6.03;;;15.10;99.90;;;;;;5044902;28;20458;-82
2022/06/11 00:27:19;;;;;;;7.20;5.20;;;15.10;99.90;;;;;;5045216;28;20890;-82
2022/06/11 00:30:05;;;;;;;11.50;5.80;;;15.10;99.90;;;;;;5051674;28;20423;-82
2022/06/11 00:39:23;;;;;;;8.50;5.77;;;15.10;99.90;;;;;;5036798;28;20450;-85
2022/06/11 00:48:41;;;;;;;11.83;6.43;;;14.90;99.90;;;;;;5034353;28;20492;-83
2022/06/11 00:51:45;;;;;;;11.67;6.27;;;14.80;99.90;;;;;;5047960;28;20415;-82
2022/06/11 00:54:34;;;;;;;8.97;6.10;;;14.80;99.90;;;;;;5033196;28;20430;-82
2022/06/11 00:57:01;;;;;;;11.30;6.63;;;14.70;99.90;;;;;;5035766;28;20875;-82
2022/06/11 01:00:15;;;;;;;9.80;6.53;;;14.70;99.90;;;;;;5034085;28;20393;-82
2022/06/11 01:06:30;;;;;;;6.90;6.03;;;14.50;99.90;;;;;;4983643;28;20420;-85
2022/06/11 01:19:04;;;;;;;8.00;6.20;;;14.20;99.90;;;;;;4994407;28;20382;-83
2022/06/11 01:21:57;;;;;;;9.93;5.83;;;14.20;99.90;;;;;;4994949;28;20456;-82
2022/06/11 01:25:15;;;;;;;9.13;5.87;;;14.10;99.90;;;;;;5008825;28;20430;-83
2022/06/11 01:28:05;;;;;;;9.53;6.00;;;14.10;99.90;;;;;;5004658;28;20456;-83
2022/06/11 01:34:04;;;;;;;8.20;6.00;;;13.90;99.90;;;;;;4997502;28;20422;-84
2022/06/11 01:40:27;;;;;;;9.90;6.70;;;13.80;1.00;;;;;;5045808;28;20833;-84
2022/06/11 01:43:01;;;;;;;14.00;6.47;;;13.60;1.00;;;;;;5040667;28;20475;-84
2022/06/11 01:46:21;;;;;;;15.30;7.00;;;13.60;1.00;;;;;;5047128;28;20422;-84
2022/06/11 01:48:58;;;;;;;11.57;6.73;;;13.60;1.00;;;;;;5042862;28;20453;-84
2022/06/11 01:52:15;;;;;;;8.30;6.70;;;13.50;1.00;;;;;;5016422;28;20409;-84
2022/06/11 01:58:25;;;;;;;9.30;6.90;;;13.40;1.00;;;;;;5034307;28;20393;-84
2022/06/11 02:11:22;;;;;;;11.00;7.60;;;13.20;1.00;;;;;;5032627;28;20802;-84
2022/06/11 02:17:14;;;;;;;11.27;7.87;;;13.10;1.00;;;;;;5034070;28;20398;-84
2022/06/11 02:19:59;;;;;;;11.53;7.40;;;13.10;1.00;;;;;;5047733;28;20388;-82
2022/06/11 02:29:06;;;;;;;12.20;7.07;;;13.30;1.00;;;;;;5033719;28;20507;-82
2022/06/11 02:32:12;;;;;;;15.40;7.30;;;13.30;1.00;;;;;;5047329;28;20411;-82
2022/06/11 02:37:59;;;;;;;7.40;6.40;;;13.40;1.00;;;;;;5034351;28;20384;-84
2022/06/11 02:41:03;;;;;;;10.47;7.00;;;13.40;1.00;;;;;;5043952;28;21118;-84
2022/06/11 02:44:15;;;;;;;10.10;7.00;;;13.50;1.00;;;;;;5015099;28;20184;-84
2022/06/11 02:47:10;;;;;;;8.30;6.60;;;13.50;1.00;;;;;;5031613;28;20861;-84
2022/06/11 02:49:57;;;;;;;11.20;7.30;;;13.60;1.00;;;;;;5040215;28;20435;-84
2022/06/11 02:55:46;;;;;;;9.50;7.30;;;13.60;1.00;;;;;;5050722;28;20403;-84
2022/06/11 02:58:16;;;;;;;9.90;6.83;;;13.70;1.00;;;;;;5041368;28;20901;-84
2022/06/11 03:01:27;;;;;;;9.83;7.17;;;13.70;1.00;;;;;;5046229;28;20394;-84
2022/06/11 03:03:58;;;;;;;8.10;6.60;;;13.80;1.00;;;;;;5032734;28;20447;-84
2022/06/11 03:06:31;;;;;;;8.90;6.43;;;13.90;1.00;;;;;;5033135;28;20434;-84
2022/06/11 03:08:58;;;;;;;11.37;6.70;;;13.90;1.00;;;;;;5033701;28;20528;-84
2022/06/11 03:11:25;;;;;;;11.47;7.90;;;13.90;1.00;;;;;;5046781;28;20455;-84
2022/06/11 03:20:34;;;;;;;13.90;7.47;;;14.00;1.00;;;;;;5033998;28;20901;-83
2022/06/11 03:23:16;;;;;;;8.30;6.70;;;14.00;1.00;;;;;;5046146;28;20400;-83
2022/06/11 03:25:59;;;;;;;10.80;6.83;;;14.00;1.00;;;;;;5043206;28;20180;-82
2022/06/11 03:31:52;;;;;;;8.47;7.30;;;13.90;1.00;;;;;;5036791;28;20385;-82
2022/06/11 03:34:35;;;;;;;8.20;6.90;;;14.10;1.00;;;;;;5050541;28;20413;-82
2022/06/11 03:37:51;;;;;;;10.60;7.50;;;14.20;1.00;;;;;;5045724;28;20429;-84
2022/06/11 03:40:28;;;;;;;11.17;7.80;;;14.30;1.00;;;;;;5026137;28;20458;-84
2022/06/11 03:43:15;;;;;;;11.33;7.30;;;14.30;1.00;;;;;;5049826;28;20405;-84
2022/06/11 03:45:46;;;;;;;9.20;7.03;;;14.40;1.00;;;;;;5045419;28;20929;-84
2022/06/11 03:52:29;;;;;;;7.93;6.73;;;14.60;1.00;;;;;;5054307;28;20433;-84
2022/06/11 03:55:10;;;;;;;9.50;6.93;;;14.60;1.00;;;;;;5026558;28;20496;-85
2022/06/11 04:01:16;;;;;;;11.90;6.70;;;14.80;1.00;;;;;;5037012;28;20422;-84
2022/06/11 04:04:34;;;;;;;8.13;6.67;;;14.90;1.00;;;;;;5050714;28;20432;-84
2022/06/11 04:07:04;;;;;;;9.03;6.80;;;15.00;1.00;;;;;;5038388;28;20431;-84
2022/06/11 04:13:45;;;;;;;7.77;6.30;;;15.10;1.00;;;;;;5036904;28;20449;-85
2022/06/11 04:24:11;;;;;;;7.50;6.00;;;15.50;99.90;;;;;;5050230;28;20912;-85
2022/06/11 04:30:38;;;;;;;10.70;5.97;;;15.70;99.90;;;;;;5025981;28;20442;-85
2022/06/11 04:36:28;;;;;;;10.57;6.10;;;15.90;99.90;;;;;;5036731;28;20446;-85
2022/06/11 04:42:17;;;;;;;8.33;6.30;;;16.10;99.90;;;;;;5042405;28;20409;-85
2022/06/11 04:44:46;;;;;;;8.30;6.23;;;16.30;99.90;;;;;;5035484;28;20922;-85
2022/06/11 04:50:35;;;;;;;7.93;6.17;;;16.50;99.90;;;;;;5044319;28;20765;-85
2022/06/11 04:56:29;;;;;;;10.87;5.93;;;16.70;99.90;;;;;;5016333;28;20909;-85
2022/06/11 04:58:56;;;;;;;9.00;5.77;;;16.70;99.90;;;;;;5068681;28;21142;-85
2022/06/11 05:08:06;;;;;;;9.67;6.10;;;16.60;99.90;;;;;;5015472;28;20611;-82
2022/06/11 05:17:16;;;;;;;8.40;5.90;;;16.50;99.90;;;;;;5042490;28;20402;-81
2022/06/11 05:19:58;;;;;;;7.20;5.73;;;16.40;99.90;;;;;;5039655;28;20464;-82
2022/06/11 05:22:28;;;;;;;10.40;6.20;;;16.50;99.90;;;;;;5042069;28;20771;-77
2022/06/11 05:24:53;;;;;;;10.27;6.10;;;16.50;99.90;;;;;;5042501;28;20422;-76
2022/06/11 05:27:40;;;;;;;10.17;6.70;;;16.50;99.90;;;;;;5044321;28;20957;-77
2022/06/11 05:30:23;;;;;;;11.50;6.87;;;16.60;99.90;;;;;;5045749;28;20513;-77
2022/06/11 05:32:50;;;;;;;9.87;5.90;;;16.60;99.90;;;;;;5040270;28;20449;-77
2022/06/11 05:35:20;;;;;;;11.07;7.53;;;16.70;99.90;;;;;;5033179;28;20424;-77
2022/06/11 05:37:54;;;;;;;10.47;6.97;;;16.70;99.90;;;;;;5045151;28;20439;-81
2022/06/11 05:40:31;;;;;;;11.50;6.50;;;16.70;99.90;;;;;;5044174;28;20420;-81
2022/06/11 05:43:11;;;;;;;11.83;6.50;;;16.90;99.90;;;;;;5048322;28;20420;-81
2022/06/11 05:46:01;;;;;;;11.43;7.60;;;16.90;99.90;;;;;;5047583;28;20430;-81
2022/06/11 05:48:41;;;;;;;10.27;7.80;;;17.00;99.90;;;;;;5039052;28;20970;-79
2022/06/11 05:51:18;;;;;;;8.50;6.87;;;17.20;99.90;;;;;;5050117;28;20415;-80
2022/06/11 05:53:43;;;;;;;12.87;7.23;;;17.30;99.90;;;;;;5021452;28;20423;-79
2022/06/11 05:56:10;;;;;;;16.03;6.80;;;17.60;99.90;;;;;;5051697;28;20408;-79
2022/06/11 05:58:45;;;;;;;11.67;8.03;;;17.80;99.90;;;;;;5034072;28;20409;-79
2022/06/11 06:01:14;;;;;;;10.60;7.20;;;18.10;99.90;;;;;;5041986;28;20776;-79
2022/06/11 06:03:40;;;;;;;9.23;6.10;;;18.30;99.90;;;;;;5038876;28;20409;-78
2022/06/11 06:06:06;;;;;;;12.00;6.60;;;18.50;99.90;;;;;;5040555;28;20417;-79
2022/06/11 06:08:34;;;;;;;17.60;7.50;;;18.60;99.90;;;;;;5053862;28;20479;-79
2022/06/11 06:11:00;;;;;;;13.13;7.67;;;18.70;99.90;;;;;;5033818;28;20552;-79
2022/06/11 06:16:10;;;;;;;9.50;7.40;;;18.70;99.90;;;;;;5033736;28;20185;-79
2022/06/11 06:18:40;;;;;;;20.90;7.90;;;18.80;99.90;;;;;;5037010;28;20426;-79
2022/06/11 06:21:07;;;;;;;15.07;7.10;;;18.80;99.90;;;;;;5033327;28;20409;-80
2022/06/11 06:23:34;;;;;;;12.20;7.03;;;18.90;99.90;;;;;;5033563;28;20414;-80
2022/06/11 06:26:00;;;;;;;10.97;6.53;;;19.00;99.90;;;;;;5033178;28;20437;-79
2022/06/11 06:28:26;;;;;;;12.03;6.27;;;19.00;99.90;;;;;;5046856;28;20846;-79
2022/06/11 06:30:52;;;;;;;13.90;6.63;;;19.10;99.90;;;;;;5033454;28;20429;-79
2022/06/11 06:33:18;;;;;;;8.80;5.93;;;19.20;99.90;;;;;;5050101;28;20428;-80
2022/06/11 06:35:43;;;;;;;14.67;6.00;;;19.30;99.90;;;;;;5043258;28;20491;-79
2022/06/11 06:38:10;;;;;;;13.17;5.73;;;19.40;99.90;;;;;;5050275;28;20540;-80
2022/06/11 06:40:42;;;;;;;8.60;4.90;;;19.60;99.90;;;;;;5043109;28;20798;-79
2022/06/11 06:43:08;;;;;;;9.20;5.00;;;19.80;99.90;;;;;;5036305;28;20525;-78
2022/06/11 06:45:34;;;;;;;9.90;4.90;;;19.80;99.90;;;;;;5040714;28;20842;-79
2022/06/11 06:48:02;;;;;;;7.30;4.90;;;19.90;99.90;;;;;;5032405;28;20463;-78
2022/06/11 06:50:46;;;;;;;11.10;4.93;;;20.10;99.90;;;;;;5045253;28;20499;-79
2022/06/11 06:53:16;;;;;;;11.83;5.07;;;20.30;99.90;;;;;;5042666;28;20410;-78
2022/06/11 06:55:42;;;;;;;10.27;4.90;;;20.40;99.90;;;;;;5050657;28;20907;-78
2022/06/11 06:58:10;;;;;;;10.83;4.73;;;20.60;99.90;;;;;;5043621;28;20473;-79
2022/06/11 07:00:36;;;;;;;9.40;4.70;;;20.80;99.90;;;;;;5039946;28;20918;-79
2022/06/11 07:03:16;;;;;;;7.57;4.73;;;20.90;99.90;;;;;;5041455;28;20813;-79
2022/06/11 07:05:43;;;;;;;4.57;4.07;;;21.00;99.90;;;;;;5046888;28;20419;-80
2022/06/11 07:08:17;;;;;;;6.13;3.83;;;21.20;99.90;;;;;;5046475;28;20477;-78
2022/06/11 07:10:53;;;;;;;10.03;4.40;;;21.50;99.90;;;;;;5028551;28;20459;-84
2022/06/11 07:13:29;;;;;;;6.77;4.33;;;21.70;99.90;;;;;;5038085;28;20923;-84
2022/06/11 07:15:58;;;;;;;15.37;4.90;;;22.10;99.90;;;;;;5043472;28;20426;-83
2022/06/11 07:18:36;;;;;;;8.47;3.40;;;22.40;99.90;;;;;;5049651;28;20815;-85
2022/06/11 07:21:05;;;;;;;3.97;3.30;;;22.60;99.90;;;;;;5045312;28;20506;-84
2022/06/11 07:23:54;;;;;;;7.67;3.93;;;23.10;99.90;;;;;;5038953;28;20808;-83
2022/06/11 07:26:34;;;;;;;7.47;4.13;;;23.40;99.90;;;;;;5041813;28;20424;-83
2022/06/11 07:29:29;;;;;;;6.50;3.83;;;23.70;99.90;;;;;;5044106;28;20493;-86
2022/06/11 07:32:10;;;;;;;4.40;3.53;;;23.80;99.90;;;;;;5045139;28;20421;-85
2022/06/11 07:35:12;;;;;;;8.27;4.00;;;24.20;99.90;;;;;;5036490;28;20439;-83
2022/06/11 07:37:41;;;;;;;6.70;3.47;;;24.70;99.90;;;;;;5038352;28;20425;-83
2022/06/11 07:40:08;;;;;;;10.20;3.80;;;25.00;99.90;;;;;;5045089;28;20430;-83
2022/06/11 07:42:40;;;;;;;6.87;3.80;;;25.30;99.90;;;;;;5041816;28;20468;-84
2022/06/11 07:45:10;;;;;;;6.07;3.13;;;25.40;99.90;;;;;;5042638;28;20430;-83
2022/06/11 07:47:55;;;;;;;8.90;3.93;;;25.50;99.90;;;;;;5037477;28;20862;-83
2022/06/11 07:50:27;;;;;;;11.27;3.13;;;25.40;99.90;;;;;;5031745;28;20938;-83
2022/06/11 07:53:10;;;;;;;9.27;3.73;;;25.40;99.90;;;;;;5031702;28;20458;-85
2022/06/11 07:56:04;;;;;;;7.27;4.07;;;25.20;99.90;;;;;;5019886;28;20412;-81
2022/06/11 07:58:34;;;;;;;8.00;4.30;;;25.10;99.90;;;;;;5031300;28;20516;-81
2022/06/11 08:01:05;;;;;;;6.73;3.70;;;25.00;99.90;;;;;;5034764;28;20921;-80
2022/06/11 08:03:46;;;;;;;8.87;4.00;;;25.00;99.90;;;;;;5032588;28;20507;-80
2022/06/11 08:06:23;;;;;;;8.23;3.60;;;25.00;99.90;;;;;;5050255;28;20521;-81
2022/06/11 08:09:04;;;;;;;5.93;3.03;;;24.70;99.90;;;;;;5039572;28;20520;-81
2022/06/11 08:11:30;;;;;;;6.67;2.70;;;24.80;99.90;;;;;;5037940;28;20434;-84
2022/06/11 08:14:22;;;;;;;5.53;2.27;;;24.80;99.90;;;;;;5031056;28;20453;-84
2022/06/11 08:16:52;;;;;;;4.40;1.90;;;24.70;99.90;;;;;;5038522;28;20194;-84
2022/06/11 08:19:22;;;;;;;5.70;1.67;;;24.50;99.90;;;;;;5051197;28;20424;-79
2022/06/11 08:22:22;;;;;;;6.03;2.10;;;24.40;99.90;;;;;;5036885;28;20428;-80
2022/06/11 08:25:04;;;;;;;5.03;1.90;;;24.50;99.90;;;;;;5035325;28;20421;-85
2022/06/11 08:27:52;;;;;;;5.20;1.97;;;24.60;99.90;;;;;;5035469;28;20953;-84
2022/06/11 08:31:04;;;;;;;4.43;1.40;;;24.60;99.90;;;;;;5037539;28;20445;-85
2022/06/11 08:33:31;;;;;;;4.20;1.90;;;24.70;99.90;;;;;;5034553;28;20980;-86
2022/06/11 08:36:10;;;;;;;3.80;2.40;;;24.80;99.90;;;;;;5035079;28;20425;-85
2022/06/11 08:39:21;;;;;;;5.83;1.60;;;24.90;99.90;;;;;;5035115;28;20511;-85
2022/06/11 08:42:07;;;;;;;3.50;1.50;;;25.00;99.90;;;;;;5022808;28;20449;-81
2022/06/11 08:44:52;;;;;;;3.97;1.70;;;25.10;99.90;;;;;;5047891;28;20423;-81
2022/06/11 08:47:24;;;;;;;2.67;1.77;;;25.20;99.90;;;;;;5047638;28;20420;-80
2022/06/11 08:49:56;;;;;;;2.53;1.33;;;25.30;99.90;;;;;;5044335;28;20427;-81
2022/06/11 08:52:27;;;;;;;4.87;1.47;;;25.30;99.90;;;;;;5039594;28;20459;-81
2022/06/11 08:59:05;;;;;;;4.37;1.70;;;25.30;99.90;;;;;;5035485;28;20420;-85
2022/06/11 09:02:02;;;;;;;4.63;1.57;;;25.30;99.90;;;;;;4988709;28;20779;-85
2022/06/11 09:05:10;;;;;;;5.60;1.50;;;25.40;99.90;;;;;;4973549;28;20437;-86
2022/06/11 09:07:58;;;;;;;9.07;1.50;;;25.60;99.90;;;;;;5006001;28;20481;-86
2022/06/11 09:10:28;;;;;;;3.73;1.33;;;25.60;99.90;;;;;;4984634;28;20456;-86
2022/06/11 09:19:46;;;;;;;5.57;1.87;;;26.00;99.90;;;;;;4999593;28;20421;-72
2022/06/11 09:22:33;;;;;;;2.67;1.00;;;25.90;99.90;;;;;;4988489;28;20444;-74
2022/06/11 09:25:14;;;;;;;15.70;1.83;;;26.10;99.90;;;;;;5012567;28;20435;-70
2022/06/11 09:27:58;;;;;;;4.80;1.47;;;26.20;99.90;;;;;;5004409;28;20510;-79
2022/06/11 09:30:41;;;;;;;1.57;1.20;;;26.40;99.90;;;;;;4993404;28;20912;-79
2022/06/11 09:33:20;;;;;;;3.20;1.30;;;26.70;99.90;;;;;;5006632;28;20982;-79
2022/06/11 09:36:04;;;;;;;4.73;1.30;;;27.10;99.90;;;;;;5005443;28;20461;-79
2022/06/11 09:38:52;;;;;;;2.07;1.40;;;27.40;99.90;;;;;;5035198;28;20437;-80
2022/06/11 09:41:46;;;;;;;7.30;1.50;;;27.30;99.90;;;;;;5048467;28;20425;-79
2022/06/11 09:44:37;;;;;;;1.93;1.60;;;27.40;99.90;;;;;;5048136;28;20438;-79
2022/06/11 09:47:34;;;;;;;2.57;1.33;;;27.40;99.90;;;;;;5034558;28;20414;-79
2022/06/11 09:50:23;;;;;;;4.57;1.83;;;27.40;99.90;;;;;;5034684;28;20419;-79
2022/06/11 09:53:17;;;;;;;3.17;1.53;;;27.00;99.90;;;;;;5031156;28;20413;-79
2022/06/11 09:56:04;;;;;;;3.27;1.47;;;27.00;99.90;;;;;;5045027;28;20434;-79
2022/06/11 09:58:51;;;;;;;2.97;1.10;;;27.10;99.90;;;;;;5034577;28;20397;-79
2022/06/11 10:01:56;;;;;;;3.70;1.03;;;27.20;99.90;;;;;;5014865;28;20399;-79
2022/06/11 10:04:27;;;;;;;1.97;1.30;;;27.60;99.90;;;;;;5028928;28;21069;-79
2022/06/11 10:06:57;;;;;;;2.70;1.10;;;27.90;99.90;;;;;;5038578;28;20530;-79
2022/06/11 10:09:38;;;;;;;1.47;1.10;;;28.00;99.90;;;;;;5034354;28;20492;-79
2022/06/11 10:12:40;;;;;;;13.23;1.23;;;28.50;99.90;;;;;;5034814;28;20390;-79
2022/06/11 10:15:22;;;;;;;1.60;1.10;;;28.80;99.90;;;;;;5011622;28;20453;-79
2022/06/11 10:18:09;;;;;;;8.60;1.40;;;28.90;99.90;;;;;;5028861;28;20438;-79
2022/06/11 10:21:00;;;;;;;4.27;1.20;;;28.90;99.90;;;;;;5018448;28;20832;-79
2022/06/11 10:23:48;;;;;;;2.83;0.87;;;28.90;99.90;;;;;;5012670;28;20469;-79
2022/06/11 10:26:57;;;;;;;2.63;1.10;;;28.60;99.90;;;;;;5012318;28;20782;-79
2022/06/11 10:29:48;;;;;;;6.40;1.30;;;28.60;99.90;;;;;;5012199;28;20455;-79
2022/06/11 10:32:37;;;;;;;12.80;1.80;;;28.30;99.90;;;;;;5007254;28;20505;-82
2022/06/11 10:35:40;;;;;;;3.00;1.93;;;28.40;99.90;;;;;;4993529;28;20426;-80
2022/06/11 10:38:28;;;;;;;4.77;1.63;;;28.50;99.90;;;;;;5009006;28;20879;-82
2022/06/11 10:41:19;;;;;;;10.30;1.40;;;28.10;99.90;;;;;;5011507;28;20418;-79
2022/06/11 10:43:52;;;;;;;1.70;1.20;;;28.10;99.90;;;;;;5025112;28;20480;-77
2022/06/11 10:46:18;;;;;;;3.20;1.40;;;28.10;99.90;;;;;;5011737;28;20466;-76
2022/06/11 10:48:44;;;;;;;4.53;1.50;;;28.10;99.90;;;;;;5011540;28;20472;-77
2022/06/11 10:51:32;;;;;;;2.27;1.50;;;28.20;99.90;;;;;;5033560;28;20433;-78
2022/06/11 10:54:12;;;;;;;2.70;1.43;;;27.90;99.90;;;;;;5038319;28;20942;-83
2022/06/11 10:56:49;;;;;;;1.20;0.90;;;27.70;99.90;;;;;;5029268;28;20410;-88
2022/06/11 11:00:04;;;;;;;2.13;1.30;;;27.80;99.90;;;;;;5033980;28;20438;-87
2022/06/11 11:02:40;;;;;;;2.90;1.20;;;27.70;99.90;;;;;;5032626;28;20414;-88
2022/06/11 11:05:13;;;;;;;1.30;1.20;;;28.10;99.90;;;;;;5036738;28;20781;-84
2022/06/11 11:07:44;;;;;;;3.03;1.10;;;28.50;99.90;;;;;;5032568;28;20955;-83
2022/06/11 11:10:40;;;;;;;8.63;1.20;;;28.70;99.90;;;;;;5038663;28;20413;-83
2022/06/11 11:13:14;;;;;;;10.07;1.37;;;28.60;99.90;;;;;;5051759;28;20448;-83
2022/06/11 11:15:43;;;;;;;3.27;0.97;;;28.90;99.90;;;;;;5041018;28;20486;-84
2022/06/11 11:18:33;;;;;;;4.17;1.20;;;29.00;99.90;;;;;;5046780;28;20781;-87
2022/06/11 11:21:40;;;;;;;2.10;1.30;;;29.80;99.90;;;;;;5047041;28;20464;-86
2022/06/11 11:27:52;;;;;;;1.67;1.20;;;30.40;99.90;;;;;;5041766;28;20386;-84
2022/06/11 11:34:02;;;;;;;2.53;1.30;;;30.10;99.90;;;;;;5037636;28;20397;-84
2022/06/11 11:36:29;;;;;;;4.60;1.40;;;30.30;99.90;;;;;;5030633;28;20409;-82
2022/06/11 11:45:57;;;;;;;5.20;1.10;;;30.00;99.90;;;;;;5039830;28;20409;-87
2022/06/11 11:48:36;;;;;;;1.83;1.30;;;30.30;99.90;;;;;;5041235;28;20552;-85
2022/06/11 11:51:30;;;;;;;5.00;1.60;;;30.50;99.90;;;;;;5045602;28;20496;-83
2022/06/11 11:54:11;;;;;;;2.07;1.20;;;30.70;99.90;;;;;;5030124;28;20426;-82
2022/06/11 11:57:04;;;;;;;1.80;1.30;;;30.70;99.90;;;;;;5043781;28;20446;-83
2022/06/11 12:00:07;;;;;;;2.97;1.33;;;30.50;99.90;;;;;;5043750;28;20853;-85
2022/06/11 12:02:41;;;;;;;1.70;1.37;;;30.50;99.90;;;;;;5029328;28;20775;-86
2022/06/11 12:05:21;;;;;;;6.03;1.40;;;30.40;99.90;;;;;;5042277;28;20418;-85
2022/06/11 12:07:54;;;;;;;2.80;1.30;;;30.40;99.90;;;;;;5055808;28;20494;-85
2022/06/11 12:10:37;;;;;;;3.43;1.33;;;30.60;99.90;;;;;;5035465;28;20422;-84
2022/06/11 12:13:24;;;;;;;2.37;1.40;;;30.70;99.90;;;;;;5041526;28;20456;-84
2022/06/11 12:16:02;;;;;;;3.20;1.60;;;30.50;99.90;;;;;;5042701;28;20433;-83
2022/06/11 12:18:48;;;;;;;5.23;1.70;;;30.30;99.90;;;;;;5047918;28;20469;-84
2022/06/11 12:21:27;;;;;;;4.30;1.50;;;30.30;99.90;;;;;;5054141;28;20431;-84
2022/06/11 12:24:08;;;;;;;2.40;1.47;;;30.20;99.90;;;;;;5056291;28;20387;-84
2022/06/11 12:26:59;;;;;;;2.07;1.27;;;30.10;99.90;;;;;;5031829;28;20426;-83
2022/06/11 12:29:41;;;;;;;2.50;1.10;;;30.00;99.90;;;;;;5020654;28;20841;-82
2022/06/11 12:32:18;;;;;;;9.30;1.47;;;30.10;99.90;;;;;;5020252;28;20428;-83
2022/06/11 12:34:53;;;;;;;6.30;1.80;;;29.90;99.90;;;;;;5006115;28;20473;-83
2022/06/11 12:38:06;;;;;;;3.80;1.57;;;29.70;99.90;;;;;;5020584;28;20781;-83
2022/06/11 12:40:57;;;;;;;2.70;1.40;;;29.70;99.90;;;;;;5015545;28;21320;-83
2022/06/11 12:43:28;;;;;;;5.80;1.60;;;29.50;99.90;;;;;;5034003;28;20965;-85
2022/06/11 12:46:09;;;;;;;14.47;1.97;;;29.10;99.90;;;;;;5033766;28;20429;-82
2022/06/11 12:48:47;;;;;;;3.97;1.80;;;29.20;99.90;;;;;;5004002;28;20607;-83
2022/06/11 12:51:29;;;;;;;2.70;1.43;;;29.40;99.90;;;;;;5022344;28;20855;-85
2022/06/11 12:54:07;;;;;;;2.00;1.50;;;29.70;99.90;;;;;;4995127;28;20423;-83
2022/06/11 12:57:16;;;;;;;3.63;1.43;;;30.10;99.90;;;;;;5015192;28;20968;-82
2022/06/11 13:00:23;;;;;;;2.63;1.30;;;30.00;99.90;;;;;;5019897;28;20434;-84
2022/06/11 13:06:45;;;;;;;3.40;1.50;;;30.60;99.90;;;;;;5022987;28;20430;-83
2022/06/11 13:09:45;;;;;;;5.07;1.50;;;30.70;99.90;;;;;;5048566;28;20462;-83
2022/06/11 13:12:24;;;;;;;2.03;1.30;;;30.80;99.90;;;;;;5026908;28;20414;-83
2022/06/11 13:15:22;;;;;;;3.50;1.10;;;30.90;99.90;;;;;;5035687;28;20415;-84
2022/06/11 13:18:31;;;;;;;11.37;1.60;;;30.90;99.90;;;;;;5048077;28;20500;-84
2022/06/11 13:21:10;;;;;;;5.33;1.67;;;31.10;99.90;;;;;;5032675;28;20426;-84
2022/06/11 13:24:08;;;;;;;7.13;1.70;;;31.20;99.90;;;;;;5033679;28;21220;-81
2022/06/11 13:27:02;;;;;;;1.77;1.23;;;31.30;99.90;;;;;;5033824;28;20513;-82
2022/06/11 13:30:00;;;;;;;5.97;1.20;;;30.70;99.90;;;;;;5028548;28;20984;-82
2022/06/11 13:32:52;;;;;;;3.73;1.30;;;30.70;99.90;;;;;;5037734;28;20956;-81
2022/06/11 13:35:30;;;;;;;4.43;1.10;;;31.10;99.90;;;;;;5051726;28;20429;-82
2022/06/11 13:38:20;;;;;;;2.53;1.50;;;31.50;99.90;;;;;;5047241;28;20778;-82
2022/06/11 13:41:01;;;;;;;1.80;1.13;;;31.20;99.90;;;;;;5033251;28;20473;-82
2022/06/11 13:43:51;;;;;;;3.10;1.50;;;30.80;99.90;;;;;;5048648;28;20493;-82
2022/06/11 13:46:43;;;;;;;2.47;1.13;;;31.10;99.90;;;;;;5054025;28;20497;-82
2022/06/11 13:49:40;;;;;;;4.37;1.70;;;31.40;99.90;;;;;;5052170;28;20968;-82
2022/06/11 13:55:10;;;;;;;6.83;1.50;;;31.40;99.90;;;;;;5038582;28;20422;-82
2022/06/11 13:55:13;;;;;;;5.33;1.20;;;31.70;99.90;;;;;;5053759;28;20785;-81
2022/06/11 13:57:47;;;;;;;3.23;1.73;;;31.90;99.90;;;;;;5053820;28;20465;-82
2022/06/11 14:00:16;;;;;;;1.53;1.20;;;32.10;99.90;;;;;;5054180;28;20425;-82
2022/06/11 14:03:00;;;;;;;4.17;1.40;;;31.90;99.90;;;;;;5053864;28;20418;-83
2022/06/11 14:05:29;;;;;;;6.00;1.47;;;32.10;99.90;;;;;;5053804;28;20410;-83
2022/06/11 14:07:57;;;;;;;5.03;1.47;;;32.30;99.90;;;;;;5046409;28;20470;-83
2022/06/11 14:10:39;;;;;;;5.83;1.17;;;32.70;99.90;;;;;;5035205;28;20423;-82
2022/06/11 14:13:13;;;;;;;3.70;1.07;;;32.80;99.90;;;;;;5046083;28;21003;-83
2022/06/11 14:15:51;;;;;;;5.40;1.43;;;32.80;99.90;;;;;;5033808;28;20422;-82
2022/06/11 14:18:23;;;;;;;4.63;1.07;;;33.00;99.90;;;;;;5032669;28;20489;-82
2022/06/11 14:21:01;;;;;;;1.93;1.47;;;32.80;99.90;;;;;;5032786;28;20949;-83
2022/06/11 14:23:26;;;;;;;3.27;1.13;;;32.70;99.90;;;;;;5026376;28;20456;-82
2022/06/11 14:26:34;;;;;;;5.33;1.50;;;32.70;99.90;;;;;;5033184;28;20947;-83
2022/06/11 14:29:37;;;;;;;4.30;1.30;;;32.80;99.90;;;;;;5039088;28;20685;-82
2022/06/11 14:32:24;;;;;;;2.07;1.23;;;32.70;99.90;;;;;;4988333;28;20903;-84
2022/06/11 14:35:14;;;;;;;2.40;1.40;;;32.50;99.90;;;;;;4987985;28;20457;-84
2022/06/11 14:37:41;;;;;;;1.53;1.23;;;32.50;99.90;;;;;;4997234;28;20463;-85
2022/06/11 14:40:20;;;;;;;2.40;1.30;;;32.70;99.90;;;;;;4992162;28;20532;-82
2022/06/11 14:43:09;;;;;;;1.67;1.17;;;32.90;99.90;;;;;;5011093;28;20427;-82
2022/06/11 14:46:23;;;;;;;4.60;1.30;;;33.00;99.90;;;;;;4982951;28;20428;-85
2022/06/11 14:48:53;;;;;;;12.90;1.73;;;32.80;99.90;;;;;;4997290;28;20472;-85
2022/06/11 14:51:19;;;;;;;3.17;1.50;;;32.40;99.90;;;;;;4992518;28;20469;-85
2022/06/11 14:54:09;;;;;;;2.70;1.47;;;32.30;99.90;;;;;;4976010;28;20429;-85
2022/06/11 14:56:46;;;;;;;1.40;1.30;;;31.80;99.90;;;;;;5003441;28;20263;-85
2022/06/11 14:59:41;;;;;;;3.23;1.37;;;31.20;99.90;;;;;;4999702;28;20431;-81
2022/06/11 15:02:41;;;;;;;3.57;1.57;;;31.00;99.90;;;;;;4998971;28;20447;-83
2022/06/11 15:05:34;;;;;;;2.90;1.37;;;30.90;99.90;;;;;;5004045;28;20467;-82
2022/06/11 15:08:35;;;;;;;2.53;1.40;;;31.00;99.90;;;;;;5040259;28;20473;-82
2022/06/11 15:11:36;;;;;;;2.93;1.30;;;31.00;99.90;;;;;;5037170;28;20471;-82
2022/06/11 15:14:39;;;;;;;1.53;1.33;;;31.30;99.90;;;;;;5022171;28;20435;-86
2022/06/11 15:17:46;;;;;;;2.30;1.47;;;33.30;99.90;;;;;;5007947;28;20472;-86
2022/06/11 15:20:32;;;;;;;5.90;1.40;;;35.40;99.90;;;;;;4995037;28;20439;-87
2022/06/11 15:23:13;;;;;;;2.90;1.20;;;37.10;99.90;;;;;;5028472;28;20422;-87
2022/06/11 15:32:27;;;;;;;3.10;1.70;;;37.80;99.90;;;;;;5034713;28;20414;-84
2022/06/11 15:34:53;;;;;;;2.30;1.10;;;36.50;99.90;;;;;;4999121;28;20431;-86
2022/06/11 15:37:38;;;;;;;1.47;1.10;;;36.70;99.90;;;;;;5011306;28;20535;-87
2022/06/11 15:40:22;;;;;;;2.57;1.10;;;38.50;99.90;;;;;;4979433;28;20815;-85
2022/06/11 15:43:24;;;;;;;4.17;1.50;;;40.30;99.90;;;;;;5025020;28;20415;-85
2022/06/11 15:46:30;;;;;;;1.83;1.17;;;39.80;99.90;;;;;;5020723;28;21070;-86
2022/06/11 15:48:56;;;;;;;2.83;1.10;;;38.30;99.90;;;;;;5009160;28;20489;-87
2022/06/11 15:51:24;;;;;;;3.20;1.07;;;37.60;99.90;;;;;;5048233;28;20938;-86
2022/06/11 15:57:20;;;;;;;2.80;1.00;;;39.70;99.90;;;;;;5039547;28;20430;-86
2022/06/11 16:00:03;;;;;;;2.00;0.90;;;42.00;99.90;;;;;;5036774;28;20858;-86
2022/06/11 16:02:49;;;;;;;4.50;1.10;;;43.70;99.90;;;;;;5036143;28;20516;-86
2022/06/11 16:05:29;;;;;;;1.17;1.07;;;45.20;99.90;;;;;;5050106;28;20929;-85
2022/06/11 16:08:18;;;;;;;1.60;1.23;;;45.60;99.90;;;;;;5036543;28;20870;-87
2022/06/11 16:11:28;;;;;;;6.67;1.20;;;45.60;99.90;;;;;;5045790;28;20446;-86
2022/06/11 16:14:01;;;;;;;26.10;1.57;;;45.80;99.90;;;;;;5037310;28;20429;-83
2022/06/11 16:17:03;;;;;;;0.90;0.90;;;45.90;99.90;;;;;;5052406;28;20398;-83
2022/06/11 16:19:36;;;;;;;1.20;0.90;;;46.80;99.90;;;;;;4997133;28;20486;-85
2022/06/11 16:22:17;;;;;;;2.13;0.90;;;47.20;99.90;;;;;;5025093;28;20423;-85
2022/06/11 16:24:48;;;;;;;1.90;0.90;;;47.80;99.90;;;;;;5019080;28;20432;-86
2022/06/11 16:27:23;;;;;;;7.93;1.00;;;47.30;99.90;;;;;;5014598;28;20416;-86
2022/06/11 16:30:34;;;;;;;4.00;1.00;;;46.40;99.90;;;;;;5013785;28;20463;-89
2022/06/11 16:33:11;;;;;;;1.30;0.87;;;45.70;99.90;;;;;;5019486;28;20439;-89
2022/06/11 16:35:52;;;;;;;1.37;0.90;;;45.80;99.90;;;;;;5013225;28;20428;-87
2022/06/11 16:38:27;;;;;;;1.63;0.90;;;44.40;99.90;;;;;;5016541;28;20482;-85
2022/06/11 16:44:58;;;;;;;4.10;1.47;;;41.30;99.90;;;;;;4954502;28;20454;-83
2022/06/11 16:47:59;;;;;;;1.30;1.30;;;39.30;99.90;;;;;;4969276;28;20434;-85
2022/06/11 16:57:20;;;;;;;7.50;1.77;;;35.20;99.90;;;;;;4981128;28;20432;-87
2022/06/11 17:00:26;;;;;;;1.93;1.30;;;35.20;99.90;;;;;;4975312;28;20418;-88
2022/06/11 17:03:08;;;;;;;3.67;1.53;;;37.10;99.90;;;;;;4982518;28;20422;-86
2022/06/11 17:06:16;;;;;;;3.07;1.40;;;39.70;99.90;;;;;;4986486;28;20441;-85
2022/06/11 17:09:06;;;;;;;4.67;1.43;;;42.00;99.90;;;;;;4969583;28;20469;-85